createdAt,value
2022-09-07T00:01:52.145Z,2.80
2022-09-07T00:04:42.337Z,3.08
2022-09-07T00:07:30.785Z,2.88
2022-09-07T00:10:19.444Z,2.78
2022-09-07T00:13:08.888Z,2.70
2022-09-07T00:15:57.589Z,2.38
2022-09-07T00:18:46.702Z,2.80
2022-09-07T00:21:37.926Z,2.88
2022-09-07T00:24:26.129Z,2.45
2022-09-07T00:27:14.567Z,2.88
2022-09-07T00:30:02.723Z,2.55
2022-09-07T00:32:51.685Z,2.70
2022-09-07T00:35:42.792Z,2.50
2022-09-07T00:38:32.788Z,2.33
2022-09-07T00:41:22.677Z,2.70
2022-09-07T00:44:53.467Z,2.40
2022-09-07T00:47:48.814Z,2.60
2022-09-07T00:50:42.301Z,2.50
2022-09-07T00:53:35.896Z,2.13
2022-09-07T00:56:27.109Z,2.28
2022-09-07T00:59:18.975Z,2.65
2022-09-07T01:02:08.451Z,2.05
2022-09-07T01:05:07.558Z,2.33
2022-09-07T01:07:58.855Z,2.70
2022-09-07T01:10:49.139Z,2.28
2022-09-07T01:13:39.963Z,2.28
2022-09-07T01:16:43.141Z,2.38
2022-09-07T01:20:13.519Z,2.63
2022-09-07T01:23:29.098Z,2.33
2022-09-07T01:26:57.484Z,2.45
2022-09-07T01:29:55.552Z,2.47
2022-09-07T01:33:13.485Z,2.30
2022-09-07T01:36:13.656Z,2.38
2022-09-07T01:39:04.531Z,2.30
2022-09-07T01:41:59.540Z,2.25
2022-09-07T01:44:54.698Z,2.30
2022-09-07T01:47:47.463Z,2.33
2022-09-07T01:50:42.198Z,2.63
2022-09-07T01:53:36.700Z,2.45
2022-09-07T01:56:29.144Z,2.53
2022-09-07T01:59:23.633Z,2.38
2022-09-07T02:02:16.845Z,2.17
2022-09-07T02:05:08.559Z,2.20
2022-09-07T02:08:02.083Z,2.70
2022-09-07T02:10:55.560Z,2.20
2022-09-07T02:13:47.631Z,2.45
2022-09-07T02:16:40.493Z,2.10
2022-09-07T02:19:36.332Z,2.50
2022-09-07T02:22:28.930Z,2.25
2022-09-07T02:25:23.582Z,2.20
2022-09-07T02:28:14.712Z,2.38
2022-09-07T02:31:04.599Z,2.30
2022-09-07T02:33:53.583Z,2.08
2022-09-07T02:36:46.750Z,2.50
2022-09-07T02:39:35.244Z,2.30
2022-09-07T02:42:23.764Z,2.55
2022-09-07T02:45:14.750Z,2.65
2022-09-07T02:48:17.527Z,2.40
2022-09-07T02:51:16.720Z,2.55
2022-09-07T02:54:17.122Z,2.35
2022-09-07T02:57:14.008Z,2.85
2022-09-07T03:00:09.017Z,2.22
2022-09-07T03:03:07.830Z,2.90
2022-09-07T03:06:00.765Z,2.30
2022-09-07T03:08:53.575Z,2.50
2022-09-07T03:11:43.863Z,2.60
2022-09-07T03:14:33.796Z,2.80
2022-09-07T03:17:22.205Z,2.47
2022-09-07T03:20:11.341Z,3.08
2022-09-07T03:23:00.136Z,2.60
2022-09-07T03:25:49.960Z,2.53
2022-09-07T03:28:40.025Z,3.60
2022-09-07T03:31:28.655Z,3.30
2022-09-07T03:34:18.407Z,2.85
2022-09-07T03:37:07.312Z,2.72
2022-09-07T03:39:55.764Z,2.90
2022-09-07T03:42:44.552Z,3.05
2022-09-07T03:45:34.280Z,3.38
2022-09-07T03:48:22.944Z,3.00
2022-09-07T03:51:13.462Z,2.95
2022-09-07T03:54:01.899Z,2.60
2022-09-07T03:56:50.344Z,3.17
2022-09-07T03:59:38.650Z,3.20
2022-09-07T04:02:28.565Z,3.13
2022-09-07T04:05:18.005Z,3.50
2022-09-07T04:08:06.829Z,3.22
2022-09-07T04:10:56.655Z,3.20
2022-09-07T04:13:45.974Z,3.50
2022-09-07T04:16:34.577Z,3.33
2022-09-07T04:19:24.699Z,3.10
2022-09-07T04:22:13.496Z,2.83
2022-09-07T04:25:02.135Z,3.40
2022-09-07T04:27:51.025Z,4.07
2022-09-07T04:30:39.312Z,3.55
2022-09-07T04:33:28.194Z,3.60
2022-09-07T04:36:19.751Z,3.30
2022-09-07T04:39:08.444Z,3.53
2022-09-07T04:41:57.304Z,3.47
2022-09-07T04:44:45.967Z,3.42
2022-09-07T04:47:34.935Z,3.55
2022-09-07T04:50:25.892Z,3.65
2022-09-07T04:53:15.854Z,3.83
2022-09-07T04:56:05.336Z,3.43
2022-09-07T04:58:54.428Z,3.40
2022-09-07T05:01:43.160Z,4.00
2022-09-07T05:04:31.944Z,3.75
2022-09-07T05:07:20.347Z,3.83
2022-09-07T05:10:10.590Z,3.90
2022-09-07T05:12:59.615Z,3.83
2022-09-07T05:15:48.554Z,3.85
2022-09-07T05:18:36.678Z,3.92
2022-09-07T05:21:27.711Z,3.85
2022-09-07T05:27:06.667Z,3.90
2022-09-07T05:30:03.535Z,4.10
2022-09-07T05:32:53.232Z,3.92
2022-09-07T05:35:41.632Z,3.78
2022-09-07T05:38:30.918Z,3.65
2022-09-07T05:41:21.244Z,4.10
2022-09-07T05:47:19.370Z,3.58
2022-09-07T05:50:09.334Z,3.65
2022-09-07T05:52:59.607Z,4.10
2022-09-07T05:55:48.156Z,4.13
2022-09-07T05:58:37.810Z,3.83
2022-09-07T06:01:27.552Z,4.00
2022-09-07T06:04:15.950Z,4.90
2022-09-07T06:07:21.059Z,4.68
2022-09-07T06:13:19.430Z,4.32
2022-09-07T06:16:09.615Z,4.30
2022-09-07T06:19:00.158Z,4.75
2022-09-07T06:21:48.743Z,3.97
2022-09-07T06:24:37.536Z,5.38
2022-09-07T06:27:27.382Z,4.43
2022-09-07T06:30:16.050Z,4.50
2022-09-07T06:33:04.473Z,4.40
2022-09-07T06:35:59.062Z,4.57
2022-09-07T06:38:48.669Z,4.38
2022-09-07T06:44:50.533Z,5.00
2022-09-07T06:47:39.369Z,5.07
2022-09-07T06:50:28.332Z,4.70
2022-09-07T06:56:23.732Z,5.43
2022-09-07T06:59:12.015Z,5.10
2022-09-07T07:02:00.724Z,5.20
2022-09-07T07:04:49.276Z,4.60
2022-09-07T07:07:38.411Z,5.22
2022-09-07T07:10:28.485Z,5.38
2022-09-07T07:16:06.137Z,5.00
2022-09-07T07:18:57.282Z,5.18
2022-09-07T07:22:10.736Z,5.15
2022-09-07T07:24:54.408Z,5.25
2022-09-07T07:27:46.113Z,5.68
2022-09-07T07:30:34.754Z,5.60
2022-09-07T07:33:23.741Z,5.60
2022-09-07T07:36:14.113Z,5.85
2022-09-07T07:39:03.066Z,6.07
2022-09-07T07:44:42.940Z,6.00
2022-09-07T07:47:31.520Z,5.80
2022-09-07T07:50:35.738Z,5.53
2022-09-07T07:53:41.833Z,6.28
2022-09-07T07:56:30.865Z,7.05
2022-09-07T07:59:19.287Z,5.95
2022-09-07T08:02:15.126Z,5.78
2022-09-07T08:05:04.165Z,5.72
2022-09-07T08:07:52.184Z,5.55
2022-09-07T08:10:40.775Z,5.75
2022-09-07T08:13:32.432Z,5.90
2022-09-07T08:16:21.257Z,5.80
2022-09-07T08:19:10.656Z,6.45
2022-09-07T08:21:59.254Z,6.53
2022-09-07T08:24:47.260Z,6.28
2022-09-07T08:27:36.425Z,6.97
2022-09-07T08:30:25.620Z,6.30
2022-09-07T08:33:14.486Z,6.13
2022-09-07T08:36:05.804Z,6.43
2022-09-07T08:38:55.021Z,6.53
2022-09-07T08:42:04.748Z,6.50
2022-09-07T08:44:59.323Z,7.43
2022-09-07T08:47:50.556Z,6.70
2022-09-07T08:50:42.172Z,7.38
2022-09-07T08:56:30.230Z,6.78
2022-09-07T08:59:26.177Z,7.55
2022-09-07T09:02:41.999Z,6.93
2022-09-07T09:05:41.290Z,6.78
2022-09-07T09:08:42.698Z,7.20
2022-09-07T09:11:44.813Z,6.85
2022-09-07T09:14:40.898Z,7.40
2022-09-07T09:17:34.063Z,6.38
2022-09-07T09:20:28.151Z,6.65
2022-09-07T09:23:18.084Z,6.60
2022-09-07T09:26:12.261Z,7.00
2022-09-07T09:29:13.764Z,6.65
2022-09-07T09:32:37.901Z,7.85
2022-09-07T09:35:37.073Z,6.82
2022-09-07T09:38:33.550Z,7.15
2022-09-07T09:41:22.969Z,7.90
2022-09-07T09:44:18.811Z,6.95
2022-09-07T09:53:35.292Z,7.05
2022-09-07T09:56:37.314Z,7.10
2022-09-07T10:05:48.149Z,6.68
2022-09-07T10:08:38.721Z,7.00
2022-09-07T10:14:56.694Z,7.50
2022-09-07T10:17:50.600Z,7.25
2022-09-07T10:20:39.915Z,7.80
2022-09-07T10:23:29.220Z,7.47
2022-09-07T10:26:30.495Z,7.32
2022-09-07T10:29:29.017Z,7.70
2022-09-07T10:32:26.363Z,8.10
2022-09-07T10:35:22.071Z,8.07
2022-09-07T10:38:17.757Z,7.35
2022-09-07T10:41:08.485Z,7.50
2022-09-07T10:46:59.614Z,7.47
2022-09-07T10:53:41.307Z,7.25
2022-09-07T10:56:36.868Z,7.93
2022-09-07T11:03:26.401Z,8.07
2022-09-07T11:06:20.223Z,7.43
2022-09-07T11:09:28.206Z,7.80
2022-09-07T11:12:22.848Z,8.75
2022-09-07T11:15:22.107Z,7.82
2022-09-07T11:18:18.251Z,8.23
2022-09-07T11:21:13.823Z,8.13
2022-09-07T11:24:09.597Z,8.57
2022-09-07T11:27:01.908Z,8.05
2022-09-07T11:29:56.401Z,8.00
2022-09-07T11:32:52.550Z,8.25
2022-09-07T11:35:51.811Z,8.60
2022-09-07T11:38:44.385Z,8.55
2022-09-07T11:41:37.961Z,8.20
2022-09-07T11:44:31.069Z,8.48
2022-09-07T11:47:27.194Z,8.25
2022-09-07T11:50:18.844Z,8.55
2022-09-07T11:53:15.300Z,8.32
2022-09-07T11:56:07.488Z,8.48
2022-09-07T11:59:37.646Z,9.00
2022-09-07T12:02:59.817Z,9.02
2022-09-07T12:06:21.798Z,7.88
2022-09-07T12:09:31.590Z,8.48
2022-09-07T12:12:52.240Z,8.63
2022-09-07T12:15:53.749Z,9.00
2022-09-07T12:19:05.466Z,8.93
2022-09-07T12:21:57.847Z,8.32
2022-09-07T12:24:51.631Z,8.90
2022-09-07T12:27:40.960Z,8.88
2022-09-07T12:31:01.076Z,8.98
2022-09-07T12:34:28.177Z,8.75
2022-09-07T12:37:42.539Z,8.55
2022-09-07T12:40:59.799Z,8.68
2022-09-07T12:44:06.085Z,8.30
2022-09-07T12:46:59.851Z,7.85
2022-09-07T12:50:06.921Z,8.43
2022-09-07T12:53:21.908Z,8.48
2022-09-07T12:56:27.556Z,8.95
2022-09-07T12:59:47.644Z,8.30
2022-09-07T13:03:04.421Z,8.30
2022-09-07T13:06:03.253Z,9.02
2022-09-07T13:09:21.057Z,8.73
2022-09-07T13:15:44.107Z,9.02
2022-09-07T13:18:44.498Z,8.50
2022-09-07T13:21:39.019Z,8.77
2022-09-07T13:24:53.362Z,8.93
2022-09-07T13:27:53.938Z,9.00
2022-09-07T13:30:57.432Z,8.32
2022-09-07T13:33:48.856Z,8.57
2022-09-07T13:36:46.486Z,8.27
2022-09-07T13:39:46.313Z,8.68
2022-09-07T13:42:36.937Z,9.05
2022-09-07T13:45:34.558Z,9.05
2022-09-07T13:48:26.655Z,9.05
2022-09-07T13:51:20.344Z,8.90
2022-09-07T13:54:17.795Z,9.10
2022-09-07T13:57:16.932Z,9.68
2022-09-07T14:00:09.207Z,9.65
2022-09-07T14:03:04.775Z,9.65
2022-09-07T14:06:17.401Z,8.65
2022-09-07T14:09:14.614Z,8.52
2022-09-07T14:12:03.301Z,9.02
2022-09-07T14:15:10.203Z,9.80
2022-09-07T14:18:15.080Z,9.10
2022-09-07T14:21:03.662Z,8.60
2022-09-07T14:23:52.636Z,9.50
2022-09-07T14:26:48.250Z,9.10
2022-09-07T14:29:37.938Z,8.77
2022-09-07T14:32:27.383Z,9.45
2022-09-07T14:35:19.719Z,9.32
2022-09-07T14:39:04.027Z,9.65
2022-09-07T14:41:32.987Z,9.07
2022-09-07T14:44:36.254Z,8.95
2022-09-07T14:47:29.138Z,9.32
2022-09-07T14:50:22.946Z,9.82
2022-09-07T14:56:29.834Z,9.98
2022-09-07T14:59:37.847Z,9.13
2022-09-07T15:02:37.606Z,9.43
2022-09-07T15:05:29.798Z,9.25
2022-09-07T15:08:22.069Z,8.98
2022-09-07T15:14:23.139Z,8.98
2022-09-07T15:20:39.845Z,9.73
2022-09-07T15:23:28.005Z,9.75
2022-09-07T15:29:25.112Z,9.50
2022-09-07T15:32:16.723Z,9.65
2022-09-07T15:35:06.263Z,10.10
2022-09-07T15:38:05.306Z,9.23
2022-09-07T15:41:20.810Z,9.30
2022-09-07T15:44:05.147Z,8.70
2022-09-07T15:50:03.388Z,8.82
2022-09-07T15:52:55.159Z,9.07
2022-09-07T15:55:43.504Z,9.07
2022-09-07T15:58:32.150Z,9.77
2022-09-07T16:04:30.304Z,9.77
2022-09-07T16:07:18.977Z,9.02
2022-09-07T16:10:09.962Z,9.45
2022-09-07T16:13:02.841Z,9.57
2022-09-07T16:15:59.897Z,9.40
2022-09-07T16:18:48.833Z,9.43
2022-09-07T16:21:41.127Z,8.95
2022-09-07T16:24:30.102Z,9.63
2022-09-07T16:27:19.673Z,10.00
2022-09-07T16:30:09.140Z,9.15
2022-09-07T16:32:58.206Z,9.10
2022-09-07T16:35:59.489Z,9.13
2022-09-07T16:38:49.165Z,8.88
2022-09-07T16:41:37.927Z,9.05
2022-09-07T16:44:27.337Z,9.57
2022-09-07T16:47:16.307Z,9.45
2022-09-07T16:50:05.111Z,9.40
2022-09-07T16:52:53.948Z,9.23
2022-09-07T16:55:42.061Z,9.45
2022-09-07T16:58:38.719Z,8.57
2022-09-07T17:01:30.623Z,9.70
2022-09-07T17:04:19.450Z,9.50
2022-09-07T17:07:07.428Z,8.60
2022-09-07T17:09:55.798Z,9.00
2022-09-07T17:12:43.819Z,8.95
2022-09-07T17:15:34.787Z,9.10
2022-09-07T17:21:34.632Z,8.98
2022-09-07T17:24:22.950Z,9.02
2022-09-07T17:27:13.378Z,9.23
2022-09-07T17:30:01.724Z,9.23
2022-09-07T17:32:50.349Z,9.25
2022-09-07T17:35:39.581Z,9.93
2022-09-07T17:41:36.528Z,9.77
2022-09-07T17:44:24.843Z,10.02
2022-09-07T17:47:13.228Z,9.50
2022-09-07T17:50:01.630Z,9.38
2022-09-07T17:52:54.125Z,9.50
2022-09-07T17:55:46.201Z,9.63
2022-09-07T17:58:36.907Z,9.70
2022-09-07T18:01:25.889Z,9.32
2022-09-07T18:04:14.585Z,9.68
2022-09-07T18:07:03.649Z,9.02
2022-09-07T18:09:52.995Z,8.65
2022-09-07T18:12:41.451Z,9.63
2022-09-07T18:15:29.749Z,9.25
2022-09-07T18:18:20.428Z,9.25
2022-09-07T18:21:17.766Z,8.80
2022-09-07T18:24:08.915Z,8.55
2022-09-07T18:26:58.584Z,10.02
2022-09-07T18:29:47.106Z,9.43
2022-09-07T18:32:34.881Z,8.55
2022-09-07T18:35:23.697Z,8.75
2022-09-07T18:38:11.838Z,8.85
2022-09-07T18:41:05.490Z,9.25
2022-09-07T18:43:56.493Z,8.88
2022-09-07T18:46:45.917Z,9.18
2022-09-07T18:49:34.462Z,9.93
2022-09-07T18:55:32.932Z,9.05
2022-09-07T18:58:21.364Z,9.00
2022-09-07T19:01:12.959Z,8.85
2022-09-07T19:04:01.403Z,9.93
2022-09-07T19:06:49.769Z,9.05
2022-09-07T19:09:39.212Z,8.93
2022-09-07T19:12:27.980Z,9.10
2022-09-07T19:15:16.715Z,8.65
2022-09-07T19:18:07.392Z,9.07
2022-09-07T19:20:55.712Z,9.13
2022-09-07T19:23:44.229Z,9.07
2022-09-07T19:26:34.824Z,9.18
2022-09-07T19:29:23.453Z,8.98
2022-09-07T19:32:13.197Z,9.15
2022-09-07T19:35:02.576Z,9.10
2022-09-07T19:37:51.275Z,8.52
2022-09-07T19:40:40.037Z,9.07
2022-09-07T19:43:31.873Z,8.43
2022-09-07T19:46:24.691Z,9.40
2022-09-07T19:49:13.679Z,9.02
2022-09-07T19:52:03.513Z,8.73
2022-09-07T19:54:52.020Z,9.82
2022-09-07T19:57:39.996Z,9.10
2022-09-07T20:00:29.454Z,8.73
2022-09-07T20:03:17.329Z,8.52
2022-09-07T20:06:07.677Z,9.25
2022-09-07T20:08:58.696Z,9.23
2022-09-07T20:11:48.471Z,8.85
2022-09-07T20:14:36.469Z,9.32
2022-09-07T20:17:25.493Z,9.27
2022-09-07T20:20:13.414Z,8.93
2022-09-07T20:23:02.192Z,8.75
2022-09-07T20:25:59.191Z,8.75
2022-09-07T20:28:48.558Z,8.50
2022-09-07T20:31:36.820Z,8.85
2022-09-07T20:34:25.619Z,9.30
2022-09-07T20:37:13.451Z,8.02
2022-09-07T20:40:02.250Z,9.00
2022-09-07T20:42:52.239Z,8.90
2022-09-07T20:45:40.661Z,8.73
2022-09-07T20:48:28.720Z,8.13
2022-09-07T20:51:21.206Z,8.77
2022-09-07T20:54:09.603Z,7.75
2022-09-07T20:57:01.009Z,8.52
2022-09-07T20:59:53.412Z,8.20
2022-09-07T21:02:41.792Z,8.73
2022-09-07T21:05:30.043Z,8.30
2022-09-07T21:08:19.201Z,8.80
2022-09-07T21:11:08.345Z,8.43
2022-09-07T21:13:58.760Z,8.60
2022-09-07T21:16:48.301Z,8.02
2022-09-07T21:19:37.214Z,8.57
2022-09-07T21:22:25.164Z,8.00
2022-09-07T21:25:14.685Z,8.25
2022-09-07T21:28:02.532Z,8.70
2022-09-07T21:30:57.990Z,8.43
2022-09-07T21:33:48.179Z,8.55
2022-09-07T21:36:36.947Z,8.27
2022-09-07T21:39:25.661Z,7.95
2022-09-07T21:42:14.163Z,8.13
2022-09-07T21:45:02.363Z,7.95
2022-09-07T21:47:50.964Z,7.90
2022-09-07T21:50:40.392Z,8.05
2022-09-07T21:53:29.073Z,7.95
2022-09-07T21:56:17.279Z,8.20
2022-09-07T21:59:06.837Z,7.70
2022-09-07T22:01:55.147Z,8.13
2022-09-07T22:04:43.913Z,8.13
2022-09-07T22:07:34.566Z,7.95
2022-09-07T22:13:11.520Z,7.13
2022-09-07T22:15:59.911Z,7.80
2022-09-07T22:18:48.767Z,7.78
2022-09-07T22:21:37.081Z,7.78
2022-09-07T22:24:26.509Z,7.68
2022-09-07T22:27:15.214Z,7.68
2022-09-07T22:30:03.559Z,7.78
2022-09-07T22:32:52.808Z,7.93
2022-09-07T22:35:41.306Z,7.70
2022-09-07T22:38:31.228Z,7.70
2022-09-07T22:41:22.361Z,7.38
2022-09-07T22:44:12.632Z,7.70
2022-09-07T22:47:00.968Z,7.45
2022-09-07T22:49:49.359Z,7.63
2022-09-07T22:52:37.485Z,7.50
2022-09-07T22:55:25.924Z,7.70
2022-09-07T22:58:15.909Z,7.78
2022-09-07T23:01:05.279Z,7.88
2022-09-07T23:03:53.672Z,7.38
2022-09-07T23:06:43.893Z,7.53
2022-09-07T23:09:32.219Z,7.30
2022-09-07T23:12:21.032Z,8.05
2022-09-07T23:15:11.332Z,8.00
2022-09-07T23:17:59.576Z,7.22
2022-09-07T23:20:48.300Z,7.60
2022-09-07T23:23:37.433Z,8.70
2022-09-07T23:26:27.470Z,8.05
2022-09-07T23:29:16.905Z,7.63
2022-09-07T23:32:06.718Z,7.35
2022-09-07T23:34:55.245Z,7.65
2022-09-07T23:37:43.587Z,7.47
2022-09-07T23:40:34.525Z,7.72
2022-09-07T23:43:22.970Z,7.45
2022-09-07T23:46:12.297Z,8.48
2022-09-07T23:49:01.746Z,7.60
2022-09-07T23:51:50.519Z,7.10
2022-09-07T23:54:38.587Z,7.47
2022-09-07T23:57:27.268Z,7.45
